Time;durP1;ratioP1;P1;durP2;ratioP2;P2;SDS_P1;SDS_P2;PMS_P1;PMS_P2;Temp;Humidity;BMP_temperature;BMP_pressure;BME280_temperature;BME280_humidity;BME280_pressure;Samples;Min_cycle;Max_cycle;Signal;HPM_P1;HPM_P2
2023/01/05 00:01:47;;;;;;;0.38;0.30;;;;;;;;;;5094922;28;20032;-39
2023/01/05 00:04:13;;;;;;;0.43;0.30;;;;;;;;;;5095004;28;20153;-39
2023/01/05 00:06:39;;;;;;;0.20;0.20;;;;;;;;;;5095300;28;20516;-39
2023/01/05 00:09:06;;;;;;;0.20;0.20;;;;;;;;;;5094398;28;20023;-39
2023/01/05 00:22:33;;;;;;;0.20;0.20;;;;;;;;;;5054841;28;20071;-39
2023/01/05 00:24:59;;;;;;;0.57;0.20;;;;;;;;;;5053560;28;20531;-39
2023/01/05 00:27:26;;;;;;;0.28;0.28;;;;;;;;;;5054648;28;20029;-39
2023/01/05 00:29:52;;;;;;;0.93;0.57;;;;;;;;;;5053710;28;20021;-39
2023/01/05 00:32:18;;;;;;;0.20;0.20;;;;;;;;;;5054416;28;20103;-39
2023/01/05 00:34:44;;;;;;;0.20;0.20;;;;;;;;;;5053348;28;20061;-40
2023/01/05 00:37:10;;;;;;;0.32;0.32;;;;;;;;;;5093913;28;20385;-39
2023/01/05 00:39:36;;;;;;;0.25;0.25;;;;;;;;;;5094567;28;20028;-39
2023/01/05 00:42:02;;;;;;;0.30;0.22;;;;;;;;;;5093699;28;20035;-39
2023/01/05 00:44:28;;;;;;;0.30;0.30;;;;;;;;;;5094581;28;20024;-39
2023/01/05 00:46:54;;;;;;;0.47;0.38;;;;;;;;;;5091767;28;20020;-39
2023/01/05 00:49:20;;;;;;;0.45;0.28;;;;;;;;;;5072624;28;20384;-39
2023/01/05 00:51:46;;;;;;;0.20;0.20;;;;;;;;;;5094037;28;20036;-39
2023/01/05 00:54:12;;;;;;;0.60;0.22;;;;;;;;;;5094423;28;20020;-39
2023/01/05 00:56:38;;;;;;;0.40;0.35;;;;;;;;;;5094326;28;20034;-38
2023/01/05 00:59:04;;;;;;;0.32;0.20;;;;;;;;;;5073959;28;20029;-39
2023/01/05 01:01:30;;;;;;;0.15;0.15;;;;;;;;;;5091489;28;20020;-39
2023/01/05 01:03:56;;;;;;;0.20;0.20;;;;;;;;;;5093443;28;20023;-39
2023/01/05 01:06:23;;;;;;;0.20;0.20;;;;;;;;;;5094065;28;20059;-39
2023/01/05 01:08:49;;;;;;;0.20;0.20;;;;;;;;;;5093108;28;20020;-40
2023/01/05 01:11:15;;;;;;;0.20;0.20;;;;;;;;;;5094285;28;20102;-39
2023/01/05 01:13:42;;;;;;;0.75;0.40;;;;;;;;;;5093217;28;20027;-40
2023/01/05 01:16:09;;;;;;;0.30;0.30;;;;;;;;;;5091656;28;20060;-39
2023/01/05 01:18:35;;;;;;;0.25;0.25;;;;;;;;;;5093724;28;20028;-39
2023/01/05 01:21:01;;;;;;;0.38;0.20;;;;;;;;;;5093400;28;20615;-39
2023/01/05 01:23:27;;;;;;;0.20;0.20;;;;;;;;;;5093591;28;20024;-39
2023/01/05 01:25:55;;;;;;;0.38;0.30;;;;;;;;;;5093477;28;20085;-39
2023/01/05 01:28:21;;;;;;;0.20;0.20;;;;;;;;;;5093778;28;20107;-39
2023/01/05 01:30:47;;;;;;;0.20;0.10;;;;;;;;;;5093050;28;20119;-39
2023/01/05 01:33:13;;;;;;;0.68;0.32;;;;;;;;;;5093444;28;20024;-39
2023/01/05 01:35:39;;;;;;;0.20;0.20;;;;;;;;;;5086933;28;20111;-39
2023/01/05 01:38:05;;;;;;;0.35;0.20;;;;;;;;;;5072418;28;20793;-39
2023/01/05 01:40:37;;;;;;;0.20;0.20;;;;;;;;;;5073370;28;20032;-39
2023/01/05 01:43:03;;;;;;;0.20;0.20;;;;;;;;;;5072435;28;20032;-39
2023/01/05 01:45:29;;;;;;;0.20;0.20;;;;;;;;;;5073833;28;20016;-39
2023/01/05 01:47:57;;;;;;;0.13;0.13;;;;;;;;;;5067267;28;20028;-40
2023/01/05 01:50:43;;;;;;;0.20;0.20;;;;;;;;;;5053318;28;20080;-39
2023/01/05 01:53:14;;;;;;;0.30;0.30;;;;;;;;;;5052956;28;20029;-39
2023/01/05 01:55:40;;;;;;;0.20;0.20;;;;;;;;;;5053152;28;20082;-40
2023/01/05 01:58:10;;;;;;;0.10;0.10;;;;;;;;;;5063453;28;20033;-39
2023/01/05 02:00:37;;;;;;;0.20;0.20;;;;;;;;;;5072974;28;20417;-39
2023/01/05 02:03:03;;;;;;;0.20;0.20;;;;;;;;;;5072171;28;20021;-39
2023/01/05 02:05:31;;;;;;;0.47;0.30;;;;;;;;;;5072513;28;20489;-39
2023/01/05 02:07:57;;;;;;;0.20;0.20;;;;;;;;;;5071532;28;20056;-39
2023/01/05 02:10:34;;;;;;;0.20;0.20;;;;;;;;;;5073057;28;20420;-40
2023/01/05 02:13:10;;;;;;;0.10;0.10;;;;;;;;;;5071825;28;20178;-39
2023/01/05 02:15:46;;;;;;;1.20;0.20;;;;;;;;;;5073059;28;20108;-39
2023/01/05 02:18:18;;;;;;;0.30;0.30;;;;;;;;;;5055600;28;20035;-39
2023/01/05 02:21:03;;;;;;;0.10;0.10;;;;;;;;;;5052272;28;20044;-40
2023/01/05 02:23:45;;;;;;;0.20;0.20;;;;;;;;;;5052131;28;20025;-39
2023/01/05 02:26:11;;;;;;;0.20;0.20;;;;;;;;;;5052669;28;20025;-39
2023/01/05 02:28:56;;;;;;;0.13;0.13;;;;;;;;;;5052590;28;20036;-39
2023/01/05 02:31:24;;;;;;;0.20;0.20;;;;;;;;;;5068079;28;20038;-39
2023/01/05 02:34:09;;;;;;;0.20;0.20;;;;;;;;;;5050787;28;20036;-39
2023/01/05 02:36:43;;;;;;;0.20;0.20;;;;;;;;;;5081743;28;20032;-39
2023/01/05 02:39:28;;;;;;;0.20;0.20;;;;;;;;;;5092635;28;20035;-39
2023/01/05 02:41:57;;;;;;;0.55;0.20;;;;;;;;;;5091891;28;20107;-40
2023/01/05 02:44:27;;;;;;;0.20;0.20;;;;;;;;;;5092151;28;20124;-39
2023/01/05 02:47:11;;;;;;;0.40;0.30;;;;;;;;;;5091877;28;20080;-39
2023/01/05 02:49:38;;;;;;;0.10;0.10;;;;;;;;;;5092210;28;20028;-39
2023/01/05 02:52:05;;;;;;;0.13;0.10;;;;;;;;;;5091883;28;20107;-39
2023/01/05 02:54:37;;;;;;;0.20;0.20;;;;;;;;;;5092171;28;20028;-39
2023/01/05 02:57:11;;;;;;;0.10;0.10;;;;;;;;;;5089009;28;20059;-39
2023/01/05 02:59:41;;;;;;;0.10;0.10;;;;;;;;;;5071772;28;20032;-39
2023/01/05 03:02:23;;;;;;;0.10;0.10;;;;;;;;;;5060306;28;20033;-39
2023/01/05 03:05:03;;;;;;;0.22;0.22;;;;;;;;;;5050367;28;20028;-39
2023/01/05 03:07:34;;;;;;;0.32;0.20;;;;;;;;;;5053463;28;20031;-39
2023/01/05 03:13:39;;;;;;;0.20;0.20;;;;;;;;;;5058999;28;20029;-39
2023/01/05 03:15:33;;;;;;;0.15;0.15;;;;;;;;;;5071745;28;20095;-39
2023/01/05 03:18:03;;;;;;;0.20;0.20;;;;;;;;;;5070512;28;20028;-39
2023/01/05 03:20:31;;;;;;;0.10;0.10;;;;;;;;;;5071949;28;20040;-39
2023/01/05 03:37:37;;;;;;;0.13;0.13;;;;;;;;;;5006990;28;20411;-39
2023/01/05 03:40:06;;;;;;;0.20;0.20;;;;;;;;;;5008610;28;20132;-39
2023/01/05 03:42:32;;;;;;;1.35;0.20;;;;;;;;;;5009988;28;20034;-39
2023/01/05 03:44:58;;;;;;;0.10;0.10;;;;;;;;;;5008558;28;20129;-39
2023/01/05 03:47:24;;;;;;;0.35;0.20;;;;;;;;;;5009532;28;20069;-39
2023/01/05 03:49:50;;;;;;;0.20;0.20;;;;;;;;;;5008386;28;20034;-40
2023/01/05 03:52:16;;;;;;;0.20;0.20;;;;;;;;;;5009797;28;20438;-40
2023/01/05 03:54:44;;;;;;;0.10;0.10;;;;;;;;;;5008571;28;20029;-41
2023/01/05 03:57:09;;;;;;;0.10;0.10;;;;;;;;;;5009661;28;20387;-40
2023/01/05 03:59:35;;;;;;;0.17;0.13;;;;;;;;;;5026012;28;20040;-40
2023/01/05 04:02:01;;;;;;;0.20;0.20;;;;;;;;;;5029585;28;20179;-40
2023/01/05 04:04:27;;;;;;;0.20;0.20;;;;;;;;;;5058554;28;20469;-40
2023/01/05 04:06:53;;;;;;;0.10;0.10;;;;;;;;;;5050091;28;20053;-39
2023/01/05 04:09:19;;;;;;;0.20;0.20;;;;;;;;;;5051062;28;20028;-39
2023/01/05 04:11:45;;;;;;;0.10;0.10;;;;;;;;;;5050754;28;20455;-39
2023/01/05 04:14:11;;;;;;;0.10;0.10;;;;;;;;;;5050761;28;20108;-39
2023/01/05 04:16:37;;;;;;;0.20;0.20;;;;;;;;;;5051384;28;20469;-39
2023/01/05 04:19:03;;;;;;;0.10;0.10;;;;;;;;;;5049840;28;20025;-39
2023/01/05 04:21:29;;;;;;;0.17;0.17;;;;;;;;;;5054627;28;20025;-39
2023/01/05 04:23:55;;;;;;;0.10;0.10;;;;;;;;;;5057689;28;20040;-39
2023/01/05 04:26:21;;;;;;;0.20;0.20;;;;;;;;;;5054824;28;20029;-39
2023/01/05 04:28:47;;;;;;;0.10;0.10;;;;;;;;;;5069071;28;20021;-39
2023/01/05 04:31:13;;;;;;;0.10;0.10;;;;;;;;;;5064710;28;20519;-39
2023/01/05 04:33:39;;;;;;;0.30;0.20;;;;;;;;;;5054251;28;20025;-39
2023/01/05 04:36:06;;;;;;;0.10;0.10;;;;;;;;;;5075232;28;20031;-39
2023/01/05 04:38:32;;;;;;;0.20;0.20;;;;;;;;;;5092916;28;20032;-40
2023/01/05 04:40:58;;;;;;;0.20;0.20;;;;;;;;;;5053965;28;20071;-40
2023/01/05 04:43:24;;;;;;;0.20;0.20;;;;;;;;;;5054653;28;20021;-39
2023/01/05 04:45:50;;;;;;;0.10;0.10;;;;;;;;;;5053696;28;20021;-40
2023/01/05 04:48:16;;;;;;;0.63;0.20;;;;;;;;;;5054315;28;20031;-39
2023/01/05 04:50:42;;;;;;;0.10;0.10;;;;;;;;;;5054134;28;20036;-41
2023/01/05 04:53:08;;;;;;;0.10;0.10;;;;;;;;;;5087564;28;20051;-40
2023/01/05 04:55:34;;;;;;;0.13;0.10;;;;;;;;;;5055016;28;20377;-39
2023/01/05 04:58:00;;;;;;;0.10;0.10;;;;;;;;;;5062853;28;20086;-39
2023/01/05 05:00:27;;;;;;;0.20;0.20;;;;;;;;;;5094538;28;20055;-39
2023/01/05 05:02:53;;;;;;;0.20;0.20;;;;;;;;;;5093406;28;20024;-39
2023/01/05 05:05:19;;;;;;;0.17;0.17;;;;;;;;;;5094216;28;20453;-39
2023/01/05 05:07:45;;;;;;;0.20;0.20;;;;;;;;;;5093893;28;20020;-40
2023/01/05 05:10:11;;;;;;;0.10;0.10;;;;;;;;;;5093927;28;20060;-39
2023/01/05 05:12:37;;;;;;;0.20;0.20;;;;;;;;;;5094412;28;20024;-39
2023/01/05 05:15:03;;;;;;;0.20;0.20;;;;;;;;;;5093169;28;20031;-39
2023/01/05 05:17:29;;;;;;;0.10;0.10;;;;;;;;;;5094471;28;20051;-39
2023/01/05 05:19:55;;;;;;;0.20;0.20;;;;;;;;;;5093442;28;20385;-40
2023/01/05 05:22:21;;;;;;;0.10;0.10;;;;;;;;;;5082441;28;20036;-39
2023/01/05 05:24:47;;;;;;;0.17;0.17;;;;;;;;;;5058564;28;20410;-40
2023/01/05 05:27:13;;;;;;;0.38;0.20;;;;;;;;;;5054121;28;20031;-39
2023/01/05 05:29:39;;;;;;;0.43;0.43;;;;;;;;;;5053569;28;20104;-39
2023/01/05 05:32:05;;;;;;;0.20;0.20;;;;;;;;;;5052816;28;20025;-39
2023/01/05 05:34:31;;;;;;;0.20;0.20;;;;;;;;;;5052854;28;20163;-40
2023/01/05 05:36:56;;;;;;;0.20;0.20;;;;;;;;;;5088471;28;20488;-39
2023/01/05 05:39:22;;;;;;;1.20;0.20;;;;;;;;;;5093353;28;20116;-39
2023/01/05 05:41:48;;;;;;;0.20;0.20;;;;;;;;;;5092982;28;20024;-39
2023/01/05 05:44:14;;;;;;;0.20;0.20;;;;;;;;;;5093040;28;20026;-39
2023/01/05 05:46:41;;;;;;;0.20;0.20;;;;;;;;;;5093545;28;20067;-40
2023/01/05 05:49:07;;;;;;;0.10;0.10;;;;;;;;;;5092692;28;20080;-39
2023/01/05 05:51:33;;;;;;;0.20;0.20;;;;;;;;;;5085799;28;20021;-39
2023/01/05 05:53:59;;;;;;;0.20;0.20;;;;;;;;;;5072076;28;20044;-39
2023/01/05 05:56:25;;;;;;;0.15;0.15;;;;;;;;;;5055792;28;20029;-39
2023/01/05 05:58:51;;;;;;;0.20;0.20;;;;;;;;;;5069033;28;20370;-39
2023/01/05 06:01:17;;;;;;;0.15;0.15;;;;;;;;;;5072081;28;20079;-39
2023/01/05 06:03:43;;;;;;;0.10;0.10;;;;;;;;;;5052476;28;20075;-40
2023/01/05 06:06:09;;;;;;;0.10;0.10;;;;;;;;;;5052458;28;20056;-39
2023/01/05 06:08:35;;;;;;;0.17;0.17;;;;;;;;;;5052708;28;20036;-39
2023/01/05 06:11:01;;;;;;;0.10;0.10;;;;;;;;;;5052088;28;20021;-39
2023/01/05 06:13:28;;;;;;;0.20;0.20;;;;;;;;;;5053089;28;20064;-39
2023/01/05 06:15:55;;;;;;;0.10;0.10;;;;;;;;;;5052351;28;20017;-39
2023/01/05 06:18:21;;;;;;;0.20;0.20;;;;;;;;;;5052505;28;20025;-39
2023/01/05 06:20:47;;;;;;;0.20;0.20;;;;;;;;;;5052042;28;20040;-39
2023/01/05 06:23:13;;;;;;;0.17;0.17;;;;;;;;;;5055235;28;20044;-39
2023/01/05 06:25:40;;;;;;;0.20;0.20;;;;;;;;;;5052402;28;20021;-39
2023/01/05 06:28:06;;;;;;;0.20;0.20;;;;;;;;;;5052059;28;20942;-39
2023/01/05 06:30:32;;;;;;;0.30;0.30;;;;;;;;;;5052169;28;20116;-40
2023/01/05 06:32:58;;;;;;;0.20;0.20;;;;;;;;;;5051516;28;20025;-39
2023/01/05 06:35:24;;;;;;;0.10;0.10;;;;;;;;;;5058578;28;20947;-39
2023/01/05 06:37:50;;;;;;;0.25;0.17;;;;;;;;;;5071080;28;20154;-40
2023/01/05 06:40:15;;;;;;;0.10;0.10;;;;;;;;;;5072373;28;20060;-39
2023/01/05 06:42:42;;;;;;;0.20;0.20;;;;;;;;;;5072204;28;20050;-40
2023/01/05 06:45:11;;;;;;;0.10;0.10;;;;;;;;;;5070747;28;20095;-39
2023/01/05 06:47:37;;;;;;;0.40;0.20;;;;;;;;;;5050877;28;20370;-39
2023/01/05 06:50:03;;;;;;;0.20;0.20;;;;;;;;;;5050739;28;20024;-40
2023/01/05 06:52:29;;;;;;;0.28;0.20;;;;;;;;;;5052444;28;20117;-40
2023/01/05 06:54:55;;;;;;;1.02;0.20;;;;;;;;;;5051041;28;20025;-39
2023/01/05 06:57:21;;;;;;;0.20;0.20;;;;;;;;;;5056844;28;20021;-39
2023/01/05 06:59:47;;;;;;;0.10;0.10;;;;;;;;;;5070966;28;20032;-39
2023/01/05 07:02:16;;;;;;;0.10;0.10;;;;;;;;;;5092326;28;20024;-39
2023/01/05 07:04:43;;;;;;;0.20;0.20;;;;;;;;;;5091446;28;20411;-40
2023/01/05 07:07:13;;;;;;;0.17;0.17;;;;;;;;;;5062293;28;20048;-39
2023/01/05 07:09:39;;;;;;;0.22;0.20;;;;;;;;;;5071059;28;20500;-39
2023/01/05 07:12:05;;;;;;;0.47;0.47;;;;;;;;;;5071376;28;20024;-39
2023/01/05 07:14:31;;;;;;;0.40;0.13;;;;;;;;;;5071700;28;20013;-39
2023/01/05 07:16:57;;;;;;;0.60;0.20;;;;;;;;;;5071234;28;20035;-40
2023/01/05 07:19:23;;;;;;;0.10;0.10;;;;;;;;;;5071673;28;20028;-39
2023/01/05 07:21:49;;;;;;;0.22;0.20;;;;;;;;;;5070739;28;20025;-39
2023/01/05 07:24:14;;;;;;;0.20;0.20;;;;;;;;;;5071689;28;20043;-39
2023/01/05 07:26:40;;;;;;;0.30;0.20;;;;;;;;;;5071874;28;20024;-39
2023/01/05 07:29:06;;;;;;;0.10;0.10;;;;;;;;;;5070510;28;20017;-40
2023/01/05 07:31:32;;;;;;;0.30;0.30;;;;;;;;;;5071729;28;20021;-40
2023/01/05 07:33:58;;;;;;;0.85;0.22;;;;;;;;;;5070722;28;20025;-40
2023/01/05 07:36:24;;;;;;;0.25;0.25;;;;;;;;;;5069634;28;20025;-40
2023/01/05 07:38:51;;;;;;;0.50;0.20;;;;;;;;;;5070396;28;20033;-40
2023/01/05 07:41:17;;;;;;;0.20;0.20;;;;;;;;;;5072111;28;20040;-39
2023/01/05 07:43:43;;;;;;;0.20;0.20;;;;;;;;;;5070799;28;20025;-41
2023/01/05 07:46:09;;;;;;;0.35;0.20;;;;;;;;;;5051141;28;20029;-39
2023/01/05 07:48:35;;;;;;;0.30;0.30;;;;;;;;;;5051237;28;20039;-39
2023/01/05 07:51:03;;;;;;;0.10;0.10;;;;;;;;;;5050754;28;20101;-39
2023/01/05 07:53:29;;;;;;;0.30;0.30;;;;;;;;;;5051019;28;20474;-39
2023/01/05 07:55:56;;;;;;;0.17;0.17;;;;;;;;;;5051164;28;20040;-40
2023/01/05 07:58:22;;;;;;;1.13;0.40;;;;;;;;;;5066784;28;20020;-39
2023/01/05 08:00:49;;;;;;;0.25;0.10;;;;;;;;;;5095114;28;20020;-39
2023/01/05 08:03:15;;;;;;;0.75;0.15;;;;;;;;;;5095414;28;20084;-39
2023/01/05 08:05:41;;;;;;;0.20;0.20;;;;;;;;;;5086975;28;20053;-40
2023/01/05 08:08:07;;;;;;;1.45;0.52;;;;;;;;;;5054169;28;20037;-39
2023/01/05 08:10:33;;;;;;;0.32;0.20;;;;;;;;;;5055460;28;20466;-39
2023/01/05 08:15:47;;;;;;;0.55;0.28;;;;;;;;;;5054356;28;20132;-39
2023/01/05 08:18:13;;;;;;;1.05;0.35;;;;;;;;;;5055187;28;20116;-39
2023/01/05 08:20:40;;;;;;;0.30;0.20;;;;;;;;;;5055312;28;20107;-39
2023/01/05 08:23:06;;;;;;;0.25;0.25;;;;;;;;;;5053803;28;20766;-39
2023/01/05 08:25:32;;;;;;;0.85;0.25;;;;;;;;;;5055109;28;20071;-39
2023/01/05 08:27:58;;;;;;;0.68;0.22;;;;;;;;;;5061077;28;20033;-39
2023/01/05 08:30:25;;;;;;;0.30;0.30;;;;;;;;;;5054756;28;20056;-39
2023/01/05 08:32:51;;;;;;;0.30;0.30;;;;;;;;;;5053824;28;20032;-40
2023/01/05 08:35:17;;;;;;;0.30;0.20;;;;;;;;;;5063069;28;20016;-39
2023/01/05 08:37:44;;;;;;;1.50;0.30;;;;;;;;;;5094446;28;20111;-40
2023/01/05 08:40:10;;;;;;;0.20;0.20;;;;;;;;;;5094489;28;20032;-39
2023/01/05 08:42:36;;;;;;;0.60;0.32;;;;;;;;;;5094847;28;20035;-39
2023/01/05 08:45:03;;;;;;;0.52;0.28;;;;;;;;;;5093317;28;20104;-39
2023/01/05 08:47:29;;;;;;;0.55;0.30;;;;;;;;;;5094701;28;20453;-39
2023/01/05 08:49:55;;;;;;;0.70;0.20;;;;;;;;;;5093504;28;20091;-39
2023/01/05 08:52:22;;;;;;;0.55;0.32;;;;;;;;;;5094480;28;20043;-39
2023/01/05 08:54:48;;;;;;;0.73;0.43;;;;;;;;;;5093421;28;20028;-40
2023/01/05 08:57:14;;;;;;;0.32;0.30;;;;;;;;;;5066265;28;20028;-39
2023/01/05 08:59:40;;;;;;;1.52;0.30;;;;;;;;;;5056881;28;20031;-39
2023/01/05 09:02:06;;;;;;;0.93;0.40;;;;;;;;;;5053513;28;20033;-39
2023/01/05 09:04:32;;;;;;;0.77;0.50;;;;;;;;;;5054026;28;20029;-39
2023/01/05 09:06:58;;;;;;;1.13;0.25;;;;;;;;;;5034714;28;20065;-39
2023/01/05 09:09:25;;;;;;;1.27;0.43;;;;;;;;;;5032626;28;20133;-39
2023/01/05 09:11:51;;;;;;;0.30;0.30;;;;;;;;;;5033527;28;20459;-39
2023/01/05 09:14:17;;;;;;;0.30;0.30;;;;;;;;;;5033879;28;20021;-39
2023/01/05 09:16:43;;;;;;;0.63;0.50;;;;;;;;;;5033263;28;20468;-40
2023/01/05 09:19:10;;;;;;;0.57;0.30;;;;;;;;;;5033577;28;20025;-39
2023/01/05 09:21:38;;;;;;;0.40;0.32;;;;;;;;;;5034066;28;20097;-39
2023/01/05 09:24:06;;;;;;;0.35;0.30;;;;;;;;;;5032560;28;20466;-39
2023/01/05 09:26:32;;;;;;;0.75;0.40;;;;;;;;;;5041171;28;20135;-39
2023/01/05 09:28:58;;;;;;;1.05;0.50;;;;;;;;;;5032607;28;20045;-39
2023/01/05 09:31:24;;;;;;;2.03;0.50;;;;;;;;;;5033790;28;20030;-39
2023/01/05 09:33:50;;;;;;;1.95;1.15;;;;;;;;;;5032575;28;20026;-39
2023/01/05 09:36:17;;;;;;;0.95;0.40;;;;;;;;;;5058025;28;20091;-39
2023/01/05 09:38:47;;;;;;;0.63;0.43;;;;;;;;;;5072943;28;20040;-40
2023/01/05 09:41:21;;;;;;;0.57;0.50;;;;;;;;;;5073693;28;20025;-39
2023/01/05 09:43:48;;;;;;;1.00;0.40;;;;;;;;;;5072400;28;20108;-40
2023/01/05 09:46:21;;;;;;;2.65;0.50;;;;;;;;;;5071391;28;20032;-39
2023/01/05 09:48:49;;;;;;;0.95;0.40;;;;;;;;;;5031947;28;20489;-40
2023/01/05 09:51:16;;;;;;;2.15;0.43;;;;;;;;;;5053457;28;20036;-39
2023/01/05 09:53:42;;;;;;;1.50;0.60;;;;;;;;;;5052656;28;20485;-39
2023/01/05 09:56:26;;;;;;;1.63;0.75;;;;;;;;;;5052953;28;20528;-39
2023/01/05 09:58:56;;;;;;;1.08;0.40;;;;;;;;;;5051764;28;20040;-40
2023/01/05 10:01:22;;;;;;;1.05;0.50;;;;;;;;;;5053373;28;20025;-39
2023/01/05 10:03:55;;;;;;;1.13;0.50;;;;;;;;;;5052036;28;20033;-40
2023/01/05 10:06:25;;;;;;;1.50;0.57;;;;;;;;;;5065880;28;20048;-39
2023/01/05 10:08:51;;;;;;;1.40;0.50;;;;;;;;;;5071683;28;20111;-39
2023/01/05 10:14:18;;;;;;;1.00;0.65;;;;;;;;;;5071595;28;20036;-39
2023/01/05 10:16:44;;;;;;;1.67;1.00;;;;;;;;;;5072248;28;20036;-40
2023/01/05 10:19:14;;;;;;;2.20;0.70;;;;;;;;;;5092393;28;20024;-39
2023/01/05 10:22:03;;;;;;;2.25;0.60;;;;;;;;;;5071872;28;20109;-39
2023/01/05 10:24:45;;;;;;;2.10;0.98;;;;;;;;;;5043588;28;20036;-39
2023/01/05 10:27:14;;;;;;;1.67;0.60;;;;;;;;;;5053746;28;20363;-39
2023/01/05 10:29:40;;;;;;;1.20;0.50;;;;;;;;;;5054458;28;20351;-39
2023/01/05 10:32:27;;;;;;;1.23;0.50;;;;;;;;;;5071918;28;20399;-39
2023/01/05 10:34:58;;;;;;;1.77;0.98;;;;;;;;;;5071742;28;20063;-39
2023/01/05 10:37:27;;;;;;;2.72;0.50;;;;;;;;;;5092810;28;20051;-39
2023/01/05 10:40:00;;;;;;;3.28;0.70;;;;;;;;;;5091596;28;20068;-40
2023/01/05 10:42:41;;;;;;;2.63;0.90;;;;;;;;;;5092835;28;20036;-39
2023/01/05 10:45:11;;;;;;;1.65;0.90;;;;;;;;;;5090291;28;20478;-40
2023/01/05 10:47:38;;;;;;;1.95;0.70;;;;;;;;;;5052459;28;20033;-39
2023/01/05 10:50:17;;;;;;;3.08;0.80;;;;;;;;;;5051256;28;20021;-40
2023/01/05 10:52:45;;;;;;;1.67;0.60;;;;;;;;;;5051833;28;20024;-40
2023/01/05 10:55:14;;;;;;;1.88;1.02;;;;;;;;;;5051785;28;20029;-39
2023/01/05 10:57:41;;;;;;;2.55;0.70;;;;;;;;;;5059630;28;20041;-39
2023/01/05 11:00:07;;;;;;;2.92;0.70;;;;;;;;;;5071325;28;20027;-39
2023/01/05 11:02:35;;;;;;;2.45;0.80;;;;;;;;;;5072221;28;20366;-39
2023/01/05 11:05:06;;;;;;;1.65;0.52;;;;;;;;;;5070340;28;20020;-39
2023/01/05 11:07:45;;;;;;;1.77;0.85;;;;;;;;;;5072122;28;20067;-39
2023/01/05 11:10:20;;;;;;;1.60;0.55;;;;;;;;;;5071867;28;20078;-39
2023/01/05 11:12:50;;;;;;;1.73;0.70;;;;;;;;;;5071198;28;20024;-40
2023/01/05 11:15:18;;;;;;;0.85;0.40;;;;;;;;;;5072067;28;20038;-39
2023/01/05 11:17:45;;;;;;;2.78;0.60;;;;;;;;;;5048213;28;20080;-41
2023/01/05 11:20:16;;;;;;;3.05;0.60;;;;;;;;;;5033328;28;20097;-39
2023/01/05 11:22:47;;;;;;;2.92;0.80;;;;;;;;;;5031853;28;20036;-39
2023/01/05 11:25:28;;;;;;;1.90;0.67;;;;;;;;;;5032017;28;20017;-39
2023/01/05 11:28:23;;;;;;;4.80;1.58;;;;;;;;;;5030908;28;20034;-39
2023/01/05 11:30:58;;;;;;;2.45;0.70;;;;;;;;;;5014369;28;20095;-39
2023/01/05 11:33:27;;;;;;;2.15;0.70;;;;;;;;;;5030856;28;20025;-39
2023/01/05 11:35:53;;;;;;;2.33;0.60;;;;;;;;;;5052448;28;20052;-39
2023/01/05 11:38:24;;;;;;;2.45;0.80;;;;;;;;;;5091622;28;20043;-39
2023/01/05 11:40:50;;;;;;;1.83;0.77;;;;;;;;;;5091298;28;20081;-39
2023/01/05 11:43:16;;;;;;;1.67;0.70;;;;;;;;;;5091695;28;20507;-39
2023/01/05 11:45:46;;;;;;;2.95;0.80;;;;;;;;;;5077526;28;20025;-40
2023/01/05 11:48:17;;;;;;;1.27;0.75;;;;;;;;;;5050990;28;20108;-39
2023/01/05 11:50:48;;;;;;;3.77;1.77;;;;;;;;;;5051184;28;20077;-40
2023/01/05 11:53:24;;;;;;;6.63;1.35;;;;;;;;;;5051392;28;20040;-39
2023/01/05 11:56:01;;;;;;;1.88;0.70;;;;;;;;;;5050757;28;20500;-40
2023/01/05 11:58:30;;;;;;;2.63;0.68;;;;;;;;;;5072583;28;20028;-39
2023/01/05 12:01:09;;;;;;;1.88;0.55;;;;;;;;;;5091695;28;20078;-39
2023/01/05 12:03:54;;;;;;;2.45;1.05;;;;;;;;;;5091155;28;20038;-39
2023/01/05 12:06:30;;;;;;;3.55;0.80;;;;;;;;;;5091352;28;20107;-39
2023/01/05 12:09:11;;;;;;;2.63;0.90;;;;;;;;;;5090545;28;20108;-39
2023/01/05 12:11:44;;;;;;;2.78;1.38;;;;;;;;;;5091707;28;20020;-39
2023/01/05 12:14:35;;;;;;;1.25;0.63;;;;;;;;;;5091409;28;20027;-40
2023/01/05 12:17:03;;;;;;;2.25;1.40;;;;;;;;;;5055549;28;20820;-39
2023/01/05 12:19:44;;;;;;;3.90;1.00;;;;;;;;;;5051049;28;20068;-39
2023/01/05 12:22:22;;;;;;;3.40;0.85;;;;;;;;;;5051261;28;20101;-39
2023/01/05 12:24:48;;;;;;;2.85;0.70;;;;;;;;;;5049993;28;20048;-40
2023/01/05 12:27:33;;;;;;;1.05;0.70;;;;;;;;;;5051445;28;20064;-39
2023/01/05 12:30:18;;;;;;;2.47;0.85;;;;;;;;;;5050234;28;20039;-39
2023/01/05 12:32:52;;;;;;;3.47;0.73;;;;;;;;;;5050870;28;20079;-40
2023/01/05 12:35:18;;;;;;;3.75;0.80;;;;;;;;;;5068127;28;20028;-39
2023/01/05 12:37:47;;;;;;;2.92;1.13;;;;;;;;;;5090768;28;20040;-43
2023/01/05 12:40:43;;;;;;;1.73;0.80;;;;;;;;;;5089736;28;20073;-39
2023/01/05 12:43:37;;;;;;;3.53;0.90;;;;;;;;;;5069104;28;20036;-39
2023/01/05 12:46:20;;;;;;;2.75;0.80;;;;;;;;;;5092900;28;20031;-39
2023/01/05 12:48:49;;;;;;;3.53;0.98;;;;;;;;;;5093836;28;20089;-40
2023/01/05 12:51:22;;;;;;;3.17;0.95;;;;;;;;;;5076841;28;20024;-39
2023/01/05 12:53:51;;;;;;;2.47;0.88;;;;;;;;;;5093828;28;20013;-40
2023/01/05 12:56:17;;;;;;;1.77;0.75;;;;;;;;;;5094647;28;20082;-40
2023/01/05 12:59:03;;;;;;;3.53;1.02;;;;;;;;;;5077593;28;20416;-40
2023/01/05 13:01:30;;;;;;;2.33;0.98;;;;;;;;;;5060477;28;20490;-39
2023/01/05 13:03:59;;;;;;;2.55;0.88;;;;;;;;;;5073045;28;20025;-40
2023/01/05 13:06:26;;;;;;;3.15;0.88;;;;;;;;;;5057369;28;20405;-39
2023/01/05 13:08:54;;;;;;;2.83;0.90;;;;;;;;;;5053236;28;20104;-40
2023/01/05 13:11:26;;;;;;;1.83;0.55;;;;;;;;;;5054089;28;20025;-39
2023/01/05 13:14:13;;;;;;;2.08;0.65;;;;;;;;;;5053300;28;20079;-40
2023/01/05 13:16:46;;;;;;;2.55;0.90;;;;;;;;;;5025697;28;20037;-39
2023/01/05 13:19:21;;;;;;;1.58;1.00;;;;;;;;;;5053497;28;20035;-39
2023/01/05 13:21:47;;;;;;;5.40;1.45;;;;;;;;;;5053366;28;20032;-40
2023/01/05 13:24:21;;;;;;;3.47;0.85;;;;;;;;;;5053503;28;20079;-39
2023/01/05 13:26:48;;;;;;;2.10;0.80;;;;;;;;;;5053293;28;20017;-40
2023/01/05 13:29:25;;;;;;;2.55;0.77;;;;;;;;;;5053543;28;20082;-39
2023/01/05 13:32:04;;;;;;;1.25;0.65;;;;;;;;;;5053183;28;20021;-40
2023/01/05 13:34:29;;;;;;;2.95;1.05;;;;;;;;;;5053608;28;20424;-39
2023/01/05 13:37:01;;;;;;;1.90;0.80;;;;;;;;;;5088269;28;20032;-39
2023/01/05 13:40:03;;;;;;;2.25;0.63;;;;;;;;;;5093424;28;20016;-39
2023/01/05 13:42:34;;;;;;;2.63;0.70;;;;;;;;;;4992101;28;20504;-39
2023/01/05 13:45:21;;;;;;;3.78;1.63;;;;;;;;;;5075488;28;20068;-39
2023/01/05 13:48:14;;;;;;;2.67;1.05;;;;;;;;;;5092685;28;20030;-40
2023/01/05 13:51:03;;;;;;;1.35;0.80;;;;;;;;;;5070040;28;20120;-39
2023/01/05 13:53:29;;;;;;;3.05;1.10;;;;;;;;;;5046173;28;20036;-39
2023/01/05 13:55:56;;;;;;;2.72;0.90;;;;;;;;;;5092563;28;20024;-39
2023/01/05 13:58:41;;;;;;;4.35;1.00;;;;;;;;;;5079431;28;20056;-39
2023/01/05 14:01:09;;;;;;;2.88;0.82;;;;;;;;;;5086914;28;20028;-41
2023/01/05 14:03:39;;;;;;;4.45;1.13;;;;;;;;;;5092803;28;20024;-39
2023/01/05 14:06:16;;;;;;;2.90;1.00;;;;;;;;;;5070021;28;20158;-39
2023/01/05 14:08:46;;;;;;;2.63;1.20;;;;;;;;;;5052536;28;20029;-40
2023/01/05 14:11:12;;;;;;;2.92;1.10;;;;;;;;;;5053676;28;20091;-39
2023/01/05 14:13:40;;;;;;;2.95;0.98;;;;;;;;;;5056089;28;20025;-39
2023/01/05 14:16:25;;;;;;;3.67;1.17;;;;;;;;;;5052904;28;20079;-39
2023/01/05 14:18:52;;;;;;;2.88;1.45;;;;;;;;;;5051418;28;20037;-40
2023/01/05 14:21:43;;;;;;;3.13;1.55;;;;;;;;;;5052704;28;20028;-39
2023/01/05 14:24:25;;;;;;;3.50;0.90;;;;;;;;;;5050451;28;20157;-39
2023/01/05 14:26:59;;;;;;;5.00;1.33;;;;;;;;;;5051544;28;20021;-40
2023/01/05 14:29:46;;;;;;;3.58;1.20;;;;;;;;;;5052272;28;20390;-39
2023/01/05 14:32:13;;;;;;;3.58;1.38;;;;;;;;;;5052856;28;20370;-39
2023/01/05 14:34:50;;;;;;;3.83;1.17;;;;;;;;;;5052022;28;20425;-39
2023/01/05 14:37:25;;;;;;;4.22;1.52;;;;;;;;;;5053109;28;20048;-39
2023/01/05 14:39:52;;;;;;;2.38;0.93;;;;;;;;;;5091895;28;20095;-39
2023/01/05 14:42:40;;;;;;;4.95;1.42;;;;;;;;;;5093216;28;20077;-39
2023/01/05 14:45:11;;;;;;;2.53;1.05;;;;;;;;;;5091287;28;20028;-39
2023/01/05 14:47:42;;;;;;;3.70;0.98;;;;;;;;;;5092582;28;20393;-39
2023/01/05 14:50:26;;;;;;;3.10;0.80;;;;;;;;;;5091736;28;20020;-39
2023/01/05 14:52:55;;;;;;;4.22;1.48;;;;;;;;;;5091475;28;20473;-40
2023/01/05 14:55:26;;;;;;;3.45;1.10;;;;;;;;;;5092477;28;20066;-39
2023/01/05 14:57:53;;;;;;;5.55;1.15;;;;;;;;;;5081993;28;20037;-40
2023/01/05 15:00:22;;;;;;;4.35;1.40;;;;;;;;;;5072235;28;20052;-39
2023/01/05 15:02:54;;;;;;;3.00;0.80;;;;;;;;;;5071017;28;20067;-40
2023/01/05 15:05:20;;;;;;;7.00;2.22;;;;;;;;;;5074006;28;20040;-39
2023/01/05 15:07:52;;;;;;;2.00;0.90;;;;;;;;;;5049513;28;20107;-40
2023/01/05 15:10:18;;;;;;;4.18;1.50;;;;;;;;;;5052196;28;20017;-39
2023/01/05 15:12:53;;;;;;;2.97;1.38;;;;;;;;;;5051512;28;20087;-40
2023/01/05 15:15:25;;;;;;;2.38;1.38;;;;;;;;;;5051986;28;20029;-39
2023/01/05 15:17:52;;;;;;;;;;;;;;;;;;5051123;28;20511;-40
2023/01/05 15:20:27;;;;;;;4.93;0.90;;;;;;;;;;5051595;28;20246;-39
2023/01/05 15:23:09;;;;;;;2.42;0.95;;;;;;;;;;5050534;28;20111;-39
2023/01/05 15:25:37;;;;;;;2.00;1.08;;;;;;;;;;5051763;28;20017;-39
2023/01/05 15:28:09;;;;;;;4.93;1.55;;;;;;;;;;5050258;28;20021;-39
2023/01/05 15:30:57;;;;;;;4.00;1.63;;;;;;;;;;5052021;28;20024;-39
2023/01/05 15:33:29;;;;;;;4.47;2.03;;;;;;;;;;5051168;28;20339;-39